Предлагаем Вашему вниманию английскую версию страницы: AUTOTAF.ME 34984 - aviation weather forecast Lagan'

AUTOTAF 34984 - авиапрогноз Лагань

Сегодня рассвет 03:38 UTC, восход солнца 04:11 UTC,
местный полдень 08:40 UTC, заход солнца 13:09 UTC,
наступление темноты 13:42 UTC.

Краткий прогноз 34984 на 9 часов

AUTOTAF.ME 34984 020800Z 0209/0218 VRB02MPS 0100 HZ OVC001

Детальный прогноз 34984 на 24 часа

AUTOTAF.ME 34984 020800Z 0209/0309 VRB02MPS 0100 HZ OVC001 TXM273/0209Z TNM273/0209Z

Подробный табличный прогноз

Время (UTC) miniAUTOTAF на 3 ч WX FZLVL
M AGL
ICE TURB Т
(°С)
Тd
(°С)
f(%) QNH
(гПа)
WIND/T


Широта 45.4°, долгота 47.3°, высота -24 м абс.
Средняя высота рельефа местности 0 м абс.
Прогнозы обновляются четыре раза в сутки: в 02, 08, 14, 20 ч всемирного времени.


Выбрать прогноз по другой модели Лагань
Онлайн-сводка гроз по Лагань (для РФ и ближнего зарубежья)
Карта фактических гроз в окрестностях Лагань
Динамические прогностические карты (ventusky.com)
Прогностическая карта высоты нижней границы облаков по Лагань (windy.com)
Выбрать другой город

Прогноз предназначен для личного научно-познавательного использования частными лицами
и не предназначен для принятия важных решений и выполнения реальных полётов воздушных судов

При копировании или ином использовании любых материалов данного сайта ссылка на © meteocenter.asia обязательна.

0.23/0.9